FW7730 Weather Reports


Display with metric or nautical units.
time (UTC)temp
F
wind
direction
speed
MPH
gust
MPH
rain 1hr
in
rain 24hr
in
rain mn
in
humidity
%
barometer
mb
20210620163107 72 59 3.0 9.0 0.00 0.06 0.00 37 1017.5
20210620162543 72 56 2.0 9.0 0.00 0.06 0.00 39 1017.5
20210620162043 72 87 4.0 8.0 0.00 0.06 0.00 36 1017.4
20210620161618 72 99 3.0 8.0 0.00 0.06 0.00 35 1017.5
20210620161041 72 113 2.0 7.0 0.00 0.06 0.00 36 1017.4
20210620160552 73 111 2.0 7.0 0.00 0.06 0.00 36 1017.5
20210620160119 71 78 3.0 9.0 0.00 0.06 0.00 37 1017.5
20210620155542 72 69 3.0 9.0 0.00 0.06 0.00 38 1017.5
20210620155041 72 41 5.0 9.0 0.00 0.06 0.00 37 1017.6
20210620154642 71 118 4.0 9.0 0.00 0.06 0.00 38 1017.6
20210620154042 71 84 4.0 9.0 0.00 0.06 0.00 37 1017.7
20210620153544 71 26 4.0 9.0 0.00 0.06 0.00 37 1017.7
20210620153124 71 88 5.0 10.0 0.00 0.06 0.00 37 1017.7
20210620152541 71 44 4.0 10.0 0.00 0.06 0.00 39 1017.8
20210620152043 71 81 4.0 9.0 0.00 0.06 0.00 39 1017.7
20210620151557 71 86 5.0 9.0 0.00 0.06 0.00 37 1017.7
20210620151046 71 30 2.0 7.0 0.00 0.06 0.00 37 1017.7
20210620150613 71 174 3.0 7.0 0.00 0.06 0.00 38 1017.6
20210620150101 71 188 3.0 7.0 0.00 0.06 0.00 40 1017.7
20210620145610 71 118 3.0 7.0 0.00 0.06 0.00 41 1017.7
20210620145041 70 75 1.0 8.0 0.00 0.06 0.00 42 1017.7
20210620144701 71 79 3.0 8.0 0.00 0.06 0.00 39 1017.6
20210620144057 69 90 2.0 9.0 0.00 0.06 0.00 41 1017.5
20210620143543 69 63 3.0 9.0 0.00 0.06 0.00 40 1017.5
20210620143053 70 101 2.0 8.0 0.00 0.06 0.00 40 1017.5
20210620142551 69 69 4.0 8.0 0.00 0.06 0.00 41 1017.5
20210620142043 69 107 1.0 7.0 0.00 0.06 0.00 43 1017.4
20210620141607 69 75 1.0 7.0 0.00 0.06 0.00 44 1017.3
20210620141048 70 105 2.0 5.0 0.00 0.06 0.00 44 1017.3
20210620140541 69 62 1.0 6.0 0.00 0.06 0.00 46 1017.1
20210620140116 69 124 2.0 6.0 0.00 0.06 0.00 46 1017.1
20210620135604 69 143 2.0 4.0 0.00 0.06 0.00 46 1017.1
20210620135044 69 128 1.0 6.0 0.00 0.06 0.00 48 1016.9
20210620134618 69 133 2.0 6.0 0.00 0.06 0.00 47 1017.0
20210620134107 69 181 3.0 6.0 0.00 0.06 0.00 48 1016.9
20210620133542 69 148 2.0 5.0 0.00 0.06 0.00 48 1016.6
20210620133120 68 180 1.0 5.0 0.00 0.06 0.00 48 1016.6
20210620132549 68 139 3.0 5.0 0.00 0.06 0.00 48 1016.3
20210620132057 68 126 0.0 3.0 0.00 0.06 0.00 49 1016.3
20210620131616 67 124 2.0 3.0 0.00 0.06 0.00 50 1016.1
20210620131053 67 122 0.0 2.0 0.00 0.06 0.00 51 1016.0
20210620130604 66 122 1.0 3.0 0.00 0.06 0.00 53 1016.0
20210620130101 66 122 1.0 6.0 0.00 0.06 0.00 53 1016.0
20210620125559 66 48 1.0 6.0 0.00 0.06 0.00 54 1016.0
20210620125150 66 347 2.0 9.0 0.00 0.06 0.00 52 1015.9
20210620124718 66 40 3.0 9.0 0.00 0.06 0.00 52 1015.9
20210620124041 66 348 3.0 9.0 0.00 0.06 0.00 52 1015.7
20210620123541 69 48 4.0 9.0 0.00 0.06 0.00 48 1015.5
20210620123249 73 84 3.0 10.0 0.00 0.06 0.00 31 1015.3
20210620122543 73 286 4.0 11.0 0.00 0.06 0.00 31 1014.9
20210620122104 73 263 5.0 16.0 0.00 0.06 0.00 30 1014.7
20210620121608 73 272 7.0 16.0 0.00 0.06 0.00 30 1014.6
20210620121042 73 247 8.0 16.0 0.00 0.06 0.00 29 1014.4
20210620120551 74 292 7.0 16.0 0.00 0.06 0.00 30 1014.3
20210620120138 74 257 7.0 16.0 0.00 0.06 0.00 29 1014.0
20210620115540 74 288 7.0 15.0 0.00 0.06 0.00 29 1014.2
20210620115045 74 306 5.0 15.0 0.00 0.06 0.00 28 1014.1
20210620114623 74 254 7.0 14.0 0.00 0.06 0.00 29 1014.0
20210620114039 74 271 6.0 14.0 0.00 0.06 0.00 28 1014.0
20210620113549 74 252 6.0 11.0 0.00 0.06 0.00 28 1014.1
20210620113129 73 278 5.0 10.0 0.00 0.06 0.00 29 1014.0
20210620112544 73 263 5.0 10.0 0.00 0.06 0.00 29 1013.9
20210620112046 72 286 3.0 9.0 0.00 0.06 0.00 30 1013.8
20210620111643 71 239 4.0 9.0 0.00 0.06 0.00 31 1013.7
20210620111048 71 249 2.0 12.0 0.00 0.06 0.00 33 1013.6
20210620110552 71 262 5.0 12.0 0.00 0.06 0.00 31 1013.6
20210620110123 67 227 2.0 6.0 0.00 0.06 0.00 35 1013.5
20210620105543 67 304 0.0 4.0 0.00 0.06 0.00 37 1013.5
20210620105044 67 304 2.0 4.0 0.00 0.06 0.00 37 1013.5
20210620104624 69 295 1.0 4.0 0.00 0.06 0.00 35 1013.5
20210620104042 69 294 2.0 4.0 0.00 0.06 0.00 34 1013.6
20210620103605 71 313 2.0 10.0 0.00 0.06 0.00 32 1013.5
20210620103119 73 288 3.0 10.0 0.00 0.06 0.00 29 1013.5
20210620102541 73 290 2.0 9.0 0.00 0.06 0.00 29 1013.5
20210620102041 74 281 4.0 9.0 0.00 0.06 0.00 28 1013.5
20210620101617 74 284 4.0 14.0 0.00 0.06 0.00 28 1013.4
20210620101040 74 259 5.0 14.0 0.00 0.06 0.00 28 1013.4
20210620100540 74 302 5.0 10.0 0.00 0.06 0.00 28 1013.3
20210620100109 74 267 5.0 11.0 0.00 0.06 0.00 28 1013.4
20210620095542 74 225 4.0 11.0 0.00 0.06 0.00 28 1013.3
20210620095042 73 296 3.0 8.0 0.00 0.06 0.00 29 1013.3
20210620094618 73 286 3.0 8.0 0.00 0.06 0.00 29 1013.3
20210620094041 73 238 3.0 8.0 0.00 0.06 0.00 29 1013.3
20210620093555 73 263 4.0 10.0 0.00 0.06 0.00 29 1013.2
20210620093137 72 261 3.0 10.0 0.00 0.06 0.00 30 1013.2
20210620092550 72 262 3.0 9.0 0.00 0.06 0.00 30 1013.1
20210620092046 72 276 3.0 7.0 0.00 0.06 0.00 29 1013.2
20210620091618 72 286 3.0 12.0 0.00 0.06 0.00 30 1013.3
20210620091043 72 261 5.0 12.0 0.00 0.06 0.00 29 1013.3
20210620090540 72 252 2.0 9.0 0.00 0.06 0.00 30 1013.5
20210620090216 72 288 4.0 9.0 0.00 0.06 0.00 30 1013.6
20210620085541 70 252 3.0 8.0 0.00 0.06 0.00 33 1013.6
20210620085104 67 278 3.0 6.0 0.00 0.06 0.00 38 1013.6
20210620084700 67 300 1.0 4.0 0.00 0.06 0.00 39 1013.5
20210620084056 67 333 0.0 3.0 0.00 0.06 0.00 39 1013.6
20210620083543 67 334 1.0 3.0 0.00 0.06 0.00 40 1013.6
20210620083109 67 0 1.0 3.0 0.00 0.06 0.00 39 1013.6
20210620082601 68 0 1.0 3.0 0.00 0.06 0.00 38 1013.5
20210620082040 68 0 0.0 2.0 0.00 0.06 0.00 37 1013.5
20210620081611 69 286 0.0 3.0 0.00 0.06 0.00 35 1013.6
20210620081041 70 0 0.0 4.0 0.00 0.06 0.00 34 1013.7
20210620080541 70 186 1.0 4.0 0.00 0.06 0.00 33 1013.7
20210620080112 70 215 1.0 3.0 0.00 0.06 0.00 33 1013.7
20210620075611 71 248 1.0 4.0 0.00 0.06 0.00 33 1013.8
20210620075135 72 296 1.0 7.0 0.00 0.06 0.00 31 1013.8
20210620074615 73 266 3.0 7.0 0.00 0.06 0.00 30 1013.9
20210620074105 73 288 1.0 11.0 0.00 0.06 0.00 30 1013.9
20210620073547 74 280 4.0 11.0 0.00 0.06 0.00 29 1014.0
20210620073138 74 286 3.0 12.0 0.00 0.06 0.00 29 1014.0
20210620072542 74 294 4.0 12.0 0.00 0.06 0.00 29 1014.0
20210620072042 74 188 5.0 11.0 0.00 0.06 0.00 28 1014.0
20210620071654 74 249 4.0 11.0 0.00 0.06 0.00 29 1013.9
20210620071043 74 296 5.0 9.0 0.00 0.06 0.00 29 1013.8
20210620070547 74 281 4.0 11.0 0.00 0.06 0.00 29 1013.7
20210620070109 74 279 4.0 11.0 0.00 0.06 0.00 29 1013.7
20210620065550 74 299 3.0 9.0 0.00 0.06 0.00 30 1013.7
20210620065055 74 267 1.0 5.0 0.00 0.06 0.00 30 1013.7
20210620064615 74 291 2.0 8.0 0.00 0.06 0.00 29 1013.7
20210620064041 74 273 2.0 8.0 0.00 0.06 0.00 29 1013.7
20210620063541 75 284 3.0 8.0 0.00 0.06 0.00 29 1013.7
20210620063208 75 320 2.0 11.0 0.00 0.06 0.00 28 1013.7
20210620062556 77 302 2.0 17.0 0.00 0.06 0.00 26 1013.6
20210620062042 77 246 6.0 17.0 0.00 0.06 0.00 26 1013.5
20210620061558 76 261 5.0 11.0 0.00 0.06 0.00 27 1013.4
20210620061044 76 249 2.0 7.0 0.00 0.06 0.00 27 1013.4
20210620060542 76 306 3.0 9.0 0.00 0.06 0.00 27 1013.4
20210620060130 77 281 4.0 9.0 0.00 0.06 0.00 27 1013.3
20210620055541 77 265 4.0 9.0 0.00 0.06 0.06 26 1013.4
20210620055041 77 266 5.0 13.0 0.00 0.06 0.06 26 1013.4
20210620054636 78 311 6.0 15.0 0.00 0.06 0.06 26 1013.4
20210620054110 78 342 5.0 21.0 0.00 0.06 0.06 25 1013.3
20210620053601 78 303 10.0 21.0 0.00 0.06 0.06 25 1013.3
20210620053148 77 352 4.0 14.0 0.00 0.06 0.06 26 1013.2
20210620052557 77 275 4.0 14.0 0.00 0.06 0.06 26 1013.3
20210620052050 77 334 3.0 12.0 0.00 0.06 0.06 27 1013.3
20210620051633 76 279 6.0 12.0 0.00 0.06 0.06 27 1013.3
20210620051042 75 284 2.0 10.0 0.00 0.06 0.06 29 1013.4
20210620050542 75 321 3.0 10.0 0.00 0.06 0.06 30 1013.5
20210620050124 74 265 3.0 9.0 0.00 0.06 0.06 30 1013.5
20210620045550 72 317 3.0 8.0 0.00 0.06 0.06 32 1013.7
20210620045043 70 184 1.0 5.0 0.00 0.06 0.06 38 1013.7
20210620044608 70 257 0.0 5.0 0.00 0.06 0.06 38 1013.7
20210620044042 70 185 1.0 5.0 0.00 0.06 0.06 39 1013.8
20210620043551 70 163 1.0 4.0 0.00 0.06 0.06 38 1013.8
20210620043157 71 0 2.0 4.0 0.00 0.06 0.06 38 1013.8
20210620042541 71 117 1.0 6.0 0.00 0.06 0.06 37 1013.8
20210620042050 71 74 1.0 6.0 0.00 0.06 0.06 39 1013.8
20210620041648 70 327 1.0 6.0 0.00 0.06 0.06 40 1013.9
20210620041049 71 317 2.0 6.0 0.00 0.06 0.06 37 1013.8
20210620040542 69 213 1.0 4.0 0.00 0.06 0.06 41 1013.8
20210620040124 69 311 2.0 6.0 0.00 0.06 0.06 42 1013.8
20210620035541 70 186 2.0 6.0 0.00 0.06 0.06 41 1013.8
20210620035050 70 289 1.0 4.0 0.00 0.06 0.06 42 1013.8
20210620034626 70 289 1.0 4.0 0.00 0.06 0.06 41 1013.7
20210620034040 70 304 1.0 3.0 0.00 0.06 0.06 43 1013.7
20210620033600 71 304 0.0 3.0 0.00 0.06 0.06 40 1013.6
20210620033243 71 0 0.0 2.0 0.00 0.06 0.06 40 1013.3
20210620032541 72 304 0.0 2.0 0.00 0.06 0.06 39 1013.3
20210620032042 72 304 0.0 3.0 0.00 0.06 0.06 39 1013.2
20210620031600 73 0 1.0 3.0 0.00 0.06 0.06 37 1013.1
20210620031042 75 0 1.0 3.0 0.00 0.06 0.06 35 1013.0
20210620030558 75 0 0.0 4.0 0.00 0.06 0.06 32 1013.1
20210620030137 75 208 1.0 10.0 0.00 0.06 0.06 33 1013.2
20210620025556 76 82 4.0 10.0 0.00 0.06 0.06 33 1013.3
20210620025042 76 97 6.0 10.0 0.00 0.06 0.06 32 1013.4
20210620024640 77 118 5.0 10.0 0.00 0.06 0.06 32 1013.5
20210620024043 77 104 4.0 9.0 0.00 0.06 0.06 29 1013.5
20210620023542 77 154 1.0 13.0 0.00 0.06 0.06 29 1013.5
20210620023244 77 271 5.0 13.0 0.00 0.06 0.06 30 1013.1
20210620022541 77 308 5.0 18.0 0.00 0.06 0.06 29 1013.0
20210620022042 77 262 8.0 18.0 0.00 0.06 0.06 30 1013.0
20210620021705 77 277 4.0 19.0 0.00 0.06 0.06 30 1012.9
20210620021047 78 286 7.0 19.0 0.00 0.06 0.06 30 1012.8
20210620020550 77 249 9.0 19.0 0.00 0.06 0.06 30 1013.1
20210620020104 77 224 8.0 24.0 0.00 0.06 0.06 31 1013.0
20210620015542 77 275 7.0 24.0 0.00 0.06 0.06 32 1013.0
20210620015043 77 340 7.0 17.0 0.00 0.06 0.06 33 1013.5
20210620014644 77 276 6.0 22.0 0.00 0.06 0.06 33 1013.5
20210620014038 77 299 11.0 23.0 0.00 0.06 0.06 32 1013.7
20210620013541 77 286 11.0 23.0 0.00 0.06 0.06 32 1013.7
20210620013145 77 304 12.0 21.0 0.00 0.06 0.06 32 1013.5
20210620012541 78 288 11.0 21.0 0.00 0.06 0.06 32 1013.7
20210620012054 78 300 9.0 31.0 0.00 0.06 0.06 31 1013.8
20210620011644 78 252 11.0 31.0 0.00 0.06 0.06 30 1014.0
20210620011109 79 254 10.0 24.0 0.00 0.06 0.06 30 1014.0
20210620010539 79 271 6.0 23.0 0.00 0.06 0.06 31 1014.2
20210620010138 79 290 12.0 23.0 0.00 0.06 0.06 30 1014.0
20210620005546 79 297 5.0 12.0 0.00 0.06 0.06 30 1014.1
20210620005039 79 275 4.0 10.0 0.00 0.06 0.06 31 1014.0
20210620004743 79 237 4.0 13.0 0.00 0.06 0.06 31 1013.8
20210620004038 79 200 7.0 15.0 0.00 0.06 0.06 30 1013.8
20210620003555 79 284 7.0 21.0 0.00 0.06 0.06 30 1013.7
20210620003058 79 204 10.0 21.0 0.00 0.06 0.06 30 1013.7
20210620002541 78 206 5.0 15.0 0.00 0.06 0.06 33 1013.7
20210620002040 78 236 4.0 13.0 0.00 0.06 0.06 33 1013.8
20210620001616 78 303 8.0 19.0 0.00 0.06 0.06 34 1013.8
20210620001039 78 241 6.0 20.0 0.00 0.06 0.06 34 1013.8
20210620000548 77 305 7.0 20.0 0.00 0.06 0.06 38 1014.3
20210620000138 76 84 3.0 10.0 0.00 0.06 0.06 51 1014.8
20210619235625 76 332 3.0 10.0 0.00 0.06 0.06 46 1014.6
20210619235116 73 327 2.0 6.0 0.00 0.06 0.06 56 1014.8
20210619234628 73 247 3.0 6.0 0.00 0.06 0.06 58 1015.3
20210619234101 73 273 1.0 3.0 0.00 0.06 0.06 59 1015.5
20210619233541 73 340 1.0 3.0 0.00 0.06 0.06 61 1015.9
20210619233058 73 5 2.0 3.0 0.01 0.06 0.06 63 1016.2
20210619232615 73 5 1.0 3.0 0.04 0.06 0.06 58 1016.2
20210619232041 73 326 1.0 3.0 0.04 0.06 0.06 59 1016.2
20210619231627 73 0 0.0 3.0 0.04 0.06 0.06 56 1016.5
20210619231044 72 293 1.0 3.0 0.04 0.06 0.06 65 1016.6
20210619230543 71 298 0.0 4.0 0.04 0.06 0.06 70 1016.8
20210619230122 70 298 2.0 4.0 0.04 0.06 0.06 68 1016.6
20210619225542 70 306 2.0 5.0 0.04 0.06 0.06 68 1016.3
20210619225040 70 346 2.0 6.0 0.04 0.06 0.06 68 1016.2
20210619224715 70 338 2.0 6.0 0.04 0.06 0.06 65 1016.2
20210619224049 70 329 3.0 5.0 0.04 0.06 0.06 65 1016.3
20210619223549 71 15 1.0 7.0 0.04 0.06 0.06 64 1016.4
20210619223115 75 62 3.0 7.0 0.02 0.04 0.04 52 1016.1
20210619222544 76 76 3.0 5.0 0.00 0.02 0.02 44 1016.6
20210619222040 76 59 2.0 9.0 0.01 0.02 0.02 45 1016.7
20210619221552 76 48 3.0 11.0 0.01 0.02 0.02 44 1016.4
20210619221046 77 35 3.0 13.0 0.01 0.02 0.02 43 1016.2
20210619220541 77 38 7.0 14.0 0.02 0.02 0.02 43 1016.0
20210619220116 78 38 6.0 15.0 0.02 0.02 0.02 43 1016.0
20210619215548 78 61 7.0 15.0 0.02 0.02 0.02 45 1016.0
20210619215043 78 105 7.0 15.0 0.02 0.02 0.02 45 1016.1
20210619214610 79 64 6.0 15.0 0.02 0.02 0.02 45 1016.1
20210619214049 78 96 7.0 15.0 0.02 0.02 0.02 49 1016.0
20210619213543 78 90 6.0 15.0 0.02 0.02 0.02 60 1016.2
20210619213101 77 59 7.0 13.0 0.02 0.02 0.02 61 1016.3
20210619212544 77 60 7.0 13.0 0.02 0.02 0.02 54 1016.4
20210619212043 75 57 3.0 11.0 0.01 0.01 0.01 56 1016.7
20210619211627 75 331 2.0 7.0 0.01 0.01 0.01 59 1016.8
20210619211043 76 341 3.0 10.0 0.00 0.00 0.00 57 1016.9
20210619210548 77 40 4.0 11.0 0.00 0.00 0.00 53 1017.1
20210619210130 79 346 5.0 11.0 0.00 0.00 0.00 45 1017.2
20210619205605 80 13 4.0 11.0 0.00 0.00 0.00 40 1016.8
20210619205051 80 43 4.0 11.0 0.00 0.00 0.00 39 1016.7
20210619204604 81 45 4.0 14.0 0.00 0.00 0.00 37 1016.7
20210619204048 81 51 5.0 15.0 0.00 0.00 0.00 35 1016.7
20210619203540 82 343 7.0 15.0 0.00 0.00 0.00 36 1016.6
20210619203107 84 17 6.0 15.0 0.00 0.00 0.00 37 1016.7
20210619202544 83 5 5.0 10.0 0.00 0.00 0.00 37 1016.6
20210619202041 84 334 5.0 11.0 0.00 0.00 0.00 37 1016.5
20210619201609 83 78 5.0 14.0 0.00 0.00 0.00 39 1016.6
20210619201114 83 5 7.0 14.0 0.00 0.00 0.00 41 1016.6
20210619200547 83 24 6.0 13.0 0.00 0.00 0.00 45 1016.7
20210619200213 83 80 6.0 10.0 0.00 0.00 0.00 46 1016.8
20210619195541 83 74 3.0 6.0 0.00 0.00 0.00 42 1016.7
20210619195043 83 13 2.0 8.0 0.00 0.00 0.00 43 1016.8
20210619194624 83 327 3.0 8.0 0.00 0.00 0.00 44 1016.8
20210619194046 83 352 3.0 8.0 0.00 0.00 0.00 44 1016.8
20210619193542 82 78 3.0 7.0 0.00 0.00 0.00 42 1016.8
20210619193318 82 70 2.0 4.0 0.00 0.00 0.00 42 1017.0
20210619192612 82 94 0.0 3.0 0.00 0.00 0.00 42 1017.1
20210619192043 82 0 0.0 6.0 0.00 0.00 0.00 41 1017.1
20210619191606 81 94 2.0 6.0 0.00 0.00 0.00 42 1017.0
20210619191043 81 0 1.0 6.0 0.00 0.00 0.00 43 1016.8
20210619190542 82 82 3.0 8.0 0.00 0.00 0.00 41 1016.8
20210619190117 83 180 3.0 8.0 0.00 0.00 0.00 42 1016.8
20210619185559 84 67 3.0 5.0 0.00 0.00 0.00 43 1016.7
20210619185043 84 31 1.0 8.0 0.00 0.00 0.00 45 1016.9
20210619184634 83 74 4.0 8.0 0.00 0.00 0.00 45 1017.0
20210619184043 84 117 2.0 8.0 0.00 0.00 0.00 44 1017.0
20210619183543 84 236 1.0 10.0 0.00 0.00 0.00 43 1017.2
20210619183119 84 183 1.0 10.0 0.00 0.00 0.00 42 1017.2
20210619182600 83 93 2.0 6.0 0.00 0.00 0.00 43 1017.2
20210619182056 83 134 3.0 7.0 0.00 0.00 0.00 42 1017.2
20210619181632 82 205 2.0 10.0 0.00 0.00 0.00 44 1017.3
20210619181043 82 130 4.0 10.0 0.00 0.00 0.00 45 1017.4
20210619180540 83 155 3.0 7.0 0.00 0.00 0.00 44 1017.4
20210619180137 81 169 3.0 7.0 0.00 0.00 0.00 44 1017.6
20210619175630 82 202 3.0 6.0 0.00 0.00 0.00 43 1017.5
20210619175040 81 203 2.0 5.0 0.00 0.00 0.00 44 1017.7
20210619174628 80 0 2.0 4.0 0.00 0.00 0.00 44 1017.7
20210619174040 81 0 1.0 7.0 0.00 0.00 0.00 40 1017.7
20210619173544 81 171 1.0 7.0 0.00 0.00 0.00 42 1017.9
20210619173143 80 129 2.0 9.0 0.00 0.00 0.00 43 1017.9
20210619172539 78 119 2.0 9.0 0.00 0.00 0.00 46 1017.9
20210619172039 78 92 2.0 8.0 0.00 0.00 0.00 46 1018.0
20210619171731 78 56 3.0 8.0 0.00 0.00 0.00 49 1017.9
20210619171125 77 64 3.0 8.0 0.00 0.00 0.00 50 1018.0
20210619170540 77 80 3.0 10.0 0.00 0.00 0.00 50 1018.0
20210619170121 77 30 4.0 10.0 0.00 0.00 0.00 50 1017.9
20210619165539 77 74 3.0 9.0 0.00 0.00 0.00 50 1017.9
20210619165041 78 78 4.0 9.0 0.00 0.00 0.00 50 1017.9
20210619164626 78 82 2.0 5.0 0.00 0.00 0.00 48 1017.9
20210619164043 77 204 1.0 5.0 0.00 0.00 0.00 48 1017.9
20210619163544 78 82 2.0 5.0 0.00 0.00 0.00 46 1018.0